Time;durP1;ratioP1;P1;durP2;ratioP2;P2;SDS_P1;SDS_P2;PMS_P1;PMS_P2;Temp;Humidity;BMP_temperature;BMP_pressure;BME280_temperature;BME280_humidity;BME280_pressure;Samples;Min_cycle;Max_cycle;Signal;HPM_P1;HPM_P2
2021/08/15 00:01:50;;;;;;;22.15;20.23;;;;;;;;;;5015044;28;20417;-92
2021/08/15 00:04:18;;;;;;;22.33;19.92;;;;;;;;;;5014425;28;20405;-92
2021/08/15 00:06:47;;;;;;;22.23;20.03;;;;;;;;;;5019605;28;20419;-92
2021/08/15 00:09:14;;;;;;;22.63;19.50;;;;;;;;;;5015639;28;20407;-92
2021/08/15 00:11:41;;;;;;;21.73;19.70;;;;;;;;;;5036556;28;20422;-92
2021/08/15 00:14:08;;;;;;;21.08;19.10;;;;;;;;;;5017575;28;20424;-91
2021/08/15 00:16:37;;;;;;;20.85;18.83;;;;;;;;;;5020636;28;20420;-92
2021/08/15 00:19:05;;;;;;;20.83;18.83;;;;;;;;;;5018246;28;20496;-92
2021/08/15 00:21:32;;;;;;;19.92;18.10;;;;;;;;;;5021439;28;20440;-91
2021/08/15 00:24:01;;;;;;;21.17;19.17;;;;;;;;;;5026324;28;20437;-92
2021/08/15 00:26:29;;;;;;;22.50;20.25;;;;;;;;;;5026382;28;20432;-91
2021/08/15 00:28:56;;;;;;;21.73;19.65;;;;;;;;;;5014519;28;20413;-92
2021/08/15 00:31:23;;;;;;;20.52;18.58;;;;;;;;;;5026075;28;20550;-91
2021/08/15 00:33:50;;;;;;;21.38;19.30;;;;;;;;;;5026028;28;20901;-92
2021/08/15 00:36:17;;;;;;;21.33;19.30;;;;;;;;;;5026033;28;20416;-92
2021/08/15 00:38:43;;;;;;;22.88;20.67;;;;;;;;;;5026186;28;20409;-92
2021/08/15 00:41:12;;;;;;;21.42;19.33;;;;;;;;;;5026490;28;20540;-92
2021/08/15 00:43:39;;;;;;;21.75;19.38;;;;;;;;;;5025760;28;20715;-92
2021/08/15 00:46:09;;;;;;;20.70;18.80;;;;;;;;;;5025818;28;20421;-92
2021/08/15 00:48:37;;;;;;;21.25;19.20;;;;;;;;;;5026308;28;20400;-92
2021/08/15 00:51:04;;;;;;;20.92;19.00;;;;;;;;;;5026085;28;20436;-92
2021/08/15 00:53:32;;;;;;;21.60;19.42;;;;;;;;;;5027604;28;20394;-92
2021/08/15 00:55:59;;;;;;;20.77;18.93;;;;;;;;;;5029918;28;20460;-92
2021/08/15 00:58:31;;;;;;;21.55;19.35;;;;;;;;;;5029981;28;20416;-91
2021/08/15 01:00:59;;;;;;;21.70;19.70;;;;;;;;;;5029788;28;20424;-93
2021/08/15 01:03:26;;;;;;;22.05;20.05;;;;;;;;;;5024324;28;20459;-91
2021/08/15 01:05:53;;;;;;;21.50;19.52;;;;;;;;;;5029305;28;20413;-92
2021/08/15 01:08:20;;;;;;;21.83;19.77;;;;;;;;;;5029711;28;20398;-93
2021/08/15 01:10:47;;;;;;;22.00;20.00;;;;;;;;;;5029684;28;20404;-92
2021/08/15 01:13:13;;;;;;;20.85;18.95;;;;;;;;;;5029334;28;20409;-90
2021/08/15 01:15:42;;;;;;;21.60;19.50;;;;;;;;;;5028541;28;20536;-91
2021/08/15 01:18:23;;;;;;;22.70;20.45;;;;;;;;;;5011814;28;20444;-92
2021/08/15 01:20:56;;;;;;;22.33;20.27;;;;;;;;;;5028274;28;20401;-91
2021/08/15 01:23:23;;;;;;;23.67;21.20;;;;;;;;;;5029780;28;20448;-92
2021/08/15 01:25:50;;;;;;;23.77;21.48;;;;;;;;;;5029168;28;20428;-92
2021/08/15 01:28:20;;;;;;;22.97;20.73;;;;;;;;;;5029713;28;20410;-92
2021/08/15 01:30:48;;;;;;;23.77;21.42;;;;;;;;;;5029676;28;20475;-89
2021/08/15 01:33:24;;;;;;;25.15;22.85;;;;;;;;;;5028650;28;20401;-92
2021/08/15 01:35:52;;;;;;;24.63;22.13;;;;;;;;;;5029789;28;20475;-91
2021/08/15 01:38:19;;;;;;;25.42;23.02;;;;;;;;;;5029670;28;20474;-92
2021/08/15 01:40:46;;;;;;;25.88;23.17;;;;;;;;;;5027969;28;20417;-89
2021/08/15 01:43:13;;;;;;;25.85;23.35;;;;;;;;;;5028480;28;20440;-91
2021/08/15 01:45:42;;;;;;;26.30;23.73;;;;;;;;;;5028908;28;20408;-92
2021/08/15 01:48:09;;;;;;;25.25;22.90;;;;;;;;;;5028905;28;20412;-92
2021/08/15 01:50:36;;;;;;;25.23;22.83;;;;;;;;;;5032022;28;20444;-91
2021/08/15 01:53:06;;;;;;;25.83;23.20;;;;;;;;;;5032558;28;20413;-93
2021/08/15 01:55:33;;;;;;;24.73;22.52;;;;;;;;;;5032950;28;20402;-91
2021/08/15 01:58:00;;;;;;;24.35;21.80;;;;;;;;;;5035740;28;20402;-91
2021/08/15 02:00:27;;;;;;;23.60;21.38;;;;;;;;;;5036538;28;20419;-90
2021/08/15 02:02:55;;;;;;;23.77;21.40;;;;;;;;;;5027758;28;20412;-91
2021/08/15 02:05:22;;;;;;;23.73;21.52;;;;;;;;;;5028959;28;20491;-91
2021/08/15 02:07:54;;;;;;;23.97;21.73;;;;;;;;;;5028897;28;20425;-91
2021/08/15 02:10:23;;;;;;;24.25;21.90;;;;;;;;;;5028510;28;20419;-92
2021/08/15 02:12:50;;;;;;;24.02;21.90;;;;;;;;;;5029044;28;20433;-91
2021/08/15 02:15:17;;;;;;;23.27;21.08;;;;;;;;;;5028087;28;20471;-92
2021/08/15 02:17:43;;;;;;;24.88;22.40;;;;;;;;;;5028385;28;20398;-92
2021/08/15 02:20:14;;;;;;;24.37;21.93;;;;;;;;;;5028854;28;20414;-92
2021/08/15 02:22:41;;;;;;;24.95;22.33;;;;;;;;;;5028535;28;20410;-92
2021/08/15 02:25:10;;;;;;;24.40;22.13;;;;;;;;;;5028217;28;20405;-92
2021/08/15 02:27:38;;;;;;;24.38;22.08;;;;;;;;;;5028385;28;20433;-91
2021/08/15 02:30:06;;;;;;;23.75;21.33;;;;;;;;;;5027503;28;20412;-91
2021/08/15 02:32:33;;;;;;;23.67;20.90;;;;;;;;;;5028252;28;20406;-91
2021/08/15 02:35:00;;;;;;;23.58;21.40;;;;;;;;;;5028271;28;20409;-92
2021/08/15 02:37:28;;;;;;;23.40;21.15;;;;;;;;;;5028135;28;20402;-91
2021/08/15 02:39:59;;;;;;;23.55;21.10;;;;;;;;;;5028057;28;20417;-91
2021/08/15 02:42:26;;;;;;;21.95;20.00;;;;;;;;;;5007405;28;20469;-92
2021/08/15 02:44:56;;;;;;;23.50;21.10;;;;;;;;;;5018302;28;21007;-91
2021/08/15 02:47:23;;;;;;;24.30;22.02;;;;;;;;;;5028147;28;20429;-91
2021/08/15 02:49:50;;;;;;;25.40;23.00;;;;;;;;;;5027498;28;20466;-91
2021/08/15 02:52:17;;;;;;;26.52;23.85;;;;;;;;;;5027924;28;20421;-91
2021/08/15 02:54:46;;;;;;;25.03;22.63;;;;;;;;;;5026561;28;20491;-92
2021/08/15 02:57:13;;;;;;;25.80;23.30;;;;;;;;;;5027538;28;20422;-92
2021/08/15 02:59:40;;;;;;;24.52;22.15;;;;;;;;;;5026449;28;20409;-91
2021/08/15 03:02:08;;;;;;;24.67;22.05;;;;;;;;;;5027649;28;20769;-91
2021/08/15 03:04:34;;;;;;;23.60;21.30;;;;;;;;;;5027379;28;20556;-91
2021/08/15 03:07:02;;;;;;;24.17;21.77;;;;;;;;;;5027331;28;20499;-91
2021/08/15 03:09:28;;;;;;;23.63;21.33;;;;;;;;;;5027634;28;20413;-91
2021/08/15 03:11:58;;;;;;;24.92;22.40;;;;;;;;;;5023473;28;20414;-91
2021/08/15 03:14:25;;;;;;;25.17;22.67;;;;;;;;;;5031574;28;20399;-90
2021/08/15 03:16:52;;;;;;;24.80;22.38;;;;;;;;;;5046604;28;20894;-92
2021/08/15 03:19:19;;;;;;;25.00;22.55;;;;;;;;;;5042988;28;20465;-91
2021/08/15 03:21:46;;;;;;;23.63;21.25;;;;;;;;;;5034537;28;20902;-90
2021/08/15 03:24:14;;;;;;;24.10;21.67;;;;;;;;;;5047201;28;20465;-90
2021/08/15 03:26:44;;;;;;;24.13;21.80;;;;;;;;;;5028844;28;20893;-91
2021/08/15 03:29:12;;;;;;;23.67;21.38;;;;;;;;;;5010098;28;20413;-90
2021/08/15 03:31:40;;;;;;;24.20;21.80;;;;;;;;;;5009460;28;20793;-91
2021/08/15 03:34:07;;;;;;;23.23;20.85;;;;;;;;;;5027118;28;20402;-92
2021/08/15 03:36:34;;;;;;;23.57;21.47;;;;;;;;;;5027248;28;20467;-91
2021/08/15 03:39:01;;;;;;;23.30;21.17;;;;;;;;;;5035379;28;20413;-91
2021/08/15 03:41:28;;;;;;;24.38;21.92;;;;;;;;;;5031110;28;20408;-91
2021/08/15 03:43:55;;;;;;;23.85;21.55;;;;;;;;;;5027200;28;20405;-91
2021/08/15 03:46:24;;;;;;;24.90;22.43;;;;;;;;;;5037783;28;20404;-91
2021/08/15 03:48:51;;;;;;;24.37;21.80;;;;;;;;;;5043738;28;20417;-89
2021/08/15 03:51:18;;;;;;;24.13;21.92;;;;;;;;;;5045613;28;20439;-91
2021/08/15 03:53:45;;;;;;;25.08;22.50;;;;;;;;;;5025156;28;20420;-91
2021/08/15 03:56:12;;;;;;;27.20;23.45;;;;;;;;;;5046603;28;20404;-91
2021/08/15 03:58:39;;;;;;;26.20;23.70;;;;;;;;;;5023880;28;20409;-91
2021/08/15 04:01:06;;;;;;;26.03;23.43;;;;;;;;;;5036132;28;20412;-90
2021/08/15 04:03:34;;;;;;;25.27;22.90;;;;;;;;;;5042085;28;20479;-91
2021/08/15 04:06:07;;;;;;;24.52;22.30;;;;;;;;;;5023884;28;20421;-92
2021/08/15 04:08:34;;;;;;;25.20;22.73;;;;;;;;;;4998981;28;20440;-91
2021/08/15 04:11:01;;;;;;;24.83;22.25;;;;;;;;;;5028958;28;20407;-91
2021/08/15 04:13:28;;;;;;;25.75;23.15;;;;;;;;;;5038551;28;20404;-90
2021/08/15 04:15:55;;;;;;;25.50;22.90;;;;;;;;;;5019698;28;20422;-92
2021/08/15 04:18:24;;;;;;;24.65;22.20;;;;;;;;;;4997770;28;20402;-91
2021/08/15 04:20:53;;;;;;;25.48;22.98;;;;;;;;;;5012319;28;20389;-91
2021/08/15 04:23:20;;;;;;;24.58;22.23;;;;;;;;;;5013984;28;20426;-91
2021/08/15 04:25:47;;;;;;;25.02;22.42;;;;;;;;;;5025881;28;20460;-91
2021/08/15 04:28:14;;;;;;;25.08;22.67;;;;;;;;;;5022742;28;21369;-91
2021/08/15 04:30:41;;;;;;;24.75;22.42;;;;;;;;;;5010977;28;20434;-91
2021/08/15 04:33:07;;;;;;;25.47;23.07;;;;;;;;;;5024858;28;20406;-91
2021/08/15 04:35:34;;;;;;;23.98;21.75;;;;;;;;;;5010323;28;20410;-92
2021/08/15 04:38:03;;;;;;;24.17;21.67;;;;;;;;;;5010196;28;20406;-90
2021/08/15 04:40:30;;;;;;;24.23;21.83;;;;;;;;;;5010083;28;20399;-91
2021/08/15 04:42:57;;;;;;;23.77;21.10;;;;;;;;;;4990299;28;20397;-89
2021/08/15 04:45:24;;;;;;;24.60;22.20;;;;;;;;;;5001699;28;20775;-89
2021/08/15 04:47:51;;;;;;;23.23;20.83;;;;;;;;;;5015994;28;20432;-91
2021/08/15 04:50:18;;;;;;;22.75;20.67;;;;;;;;;;5029303;28;20563;-90
2021/08/15 04:52:45;;;;;;;23.50;21.23;;;;;;;;;;5011889;28;20406;-90
2021/08/15 04:55:14;;;;;;;21.98;19.77;;;;;;;;;;5012582;28;20418;-90
2021/08/15 04:57:41;;;;;;;22.20;20.02;;;;;;;;;;5009376;28;20430;-90
2021/08/15 05:00:09;;;;;;;21.45;19.25;;;;;;;;;;5000134;28;20772;-90
2021/08/15 05:02:36;;;;;;;21.70;19.70;;;;;;;;;;5009356;28;20411;-91
2021/08/15 05:05:04;;;;;;;27.75;19.60;;;;;;;;;;5008565;28;20862;-89
2021/08/15 05:07:31;;;;;;;20.83;18.73;;;;;;;;;;5015407;28;20423;-89
2021/08/15 05:09:58;;;;;;;22.37;19.67;;;;;;;;;;5011606;28;20414;-92
2021/08/15 05:12:26;;;;;;;21.95;19.65;;;;;;;;;;5002047;28;20430;-92
2021/08/15 05:14:53;;;;;;;22.83;20.48;;;;;;;;;;5017010;28;20467;-90
2021/08/15 05:17:20;;;;;;;21.02;19.02;;;;;;;;;;5029075;28;20416;-92
2021/08/15 05:19:47;;;;;;;20.83;18.73;;;;;;;;;;5027993;28;20405;-90
2021/08/15 05:22:15;;;;;;;23.63;20.20;;;;;;;;;;5017623;28;20947;-92
2021/08/15 05:24:42;;;;;;;22.48;20.10;;;;;;;;;;5028699;28;20405;-93
2021/08/15 05:27:16;;;;;;;23.70;20.08;;;;;;;;;;5028396;28;20417;-92
2021/08/15 05:29:49;;;;;;;22.98;20.27;;;;;;;;;;5028854;28;20746;-92
2021/08/15 05:32:23;;;;;;;21.23;19.15;;;;;;;;;;5028784;28;20762;-90
2021/08/15 05:34:50;;;;;;;21.63;19.33;;;;;;;;;;5028889;28;20488;-90
2021/08/15 05:37:17;;;;;;;21.40;19.25;;;;;;;;;;5028694;28;20924;-91
2021/08/15 05:39:44;;;;;;;20.23;18.23;;;;;;;;;;5028155;28;20393;-90
2021/08/15 05:42:11;;;;;;;20.60;18.55;;;;;;;;;;5028352;28;20417;-90
2021/08/15 05:44:38;;;;;;;19.60;17.55;;;;;;;;;;5028456;28;20409;-90
2021/08/15 05:47:08;;;;;;;18.75;17.02;;;;;;;;;;5028584;28;20420;-90
2021/08/15 05:49:35;;;;;;;19.17;17.17;;;;;;;;;;5027262;28;20413;-89
2021/08/15 05:52:02;;;;;;;18.98;17.17;;;;;;;;;;5028500;28;20432;-89
2021/08/15 05:54:29;;;;;;;19.10;17.08;;;;;;;;;;5028977;28;20413;-90
2021/08/15 05:56:56;;;;;;;18.52;16.73;;;;;;;;;;5025637;28;20471;-90
2021/08/15 05:59:23;;;;;;;19.08;17.17;;;;;;;;;;5029553;28;20893;-90
2021/08/15 06:01:50;;;;;;;20.95;15.93;;;;;;;;;;5028087;28;20897;-90
2021/08/15 06:04:19;;;;;;;17.02;15.32;;;;;;;;;;5027760;28;20799;-91
2021/08/15 06:06:46;;;;;;;17.95;16.05;;;;;;;;;;5024165;28;20508;-92
2021/08/15 06:09:13;;;;;;;17.40;15.70;;;;;;;;;;5028788;28;20421;-91
2021/08/15 06:11:40;;;;;;;16.83;15.18;;;;;;;;;;5027135;28;20738;-89
2021/08/15 06:14:07;;;;;;;17.55;15.75;;;;;;;;;;5027067;28;20425;-90
2021/08/15 06:16:34;;;;;;;16.77;15.17;;;;;;;;;;5028373;28;20398;-90
2021/08/15 06:19:01;;;;;;;16.75;14.95;;;;;;;;;;5024291;28;20777;-75
2021/08/15 06:21:29;;;;;;;17.25;15.45;;;;;;;;;;5025252;28;20401;-88
2021/08/15 06:23:56;;;;;;;15.95;14.27;;;;;;;;;;5023736;28;20409;-89
2021/08/15 06:26:23;;;;;;;16.92;15.23;;;;;;;;;;5029690;28;20769;-91
2021/08/15 06:28:51;;;;;;;17.40;15.60;;;;;;;;;;5030760;28;20785;-92
2021/08/15 06:31:17;;;;;;;17.85;16.05;;;;;;;;;;5043670;28;20401;-91
2021/08/15 06:33:45;;;;;;;18.30;16.60;;;;;;;;;;5042298;28;20389;-93
2021/08/15 06:36:12;;;;;;;17.63;15.85;;;;;;;;;;5040386;28;20483;-93
2021/08/15 06:38:41;;;;;;;18.75;16.90;;;;;;;;;;5028335;28;20417;-93
2021/08/15 06:41:09;;;;;;;19.08;17.25;;;;;;;;;;5027271;28;20413;-91
2021/08/15 06:43:36;;;;;;;18.85;16.85;;;;;;;;;;5026350;28;20397;-93
2021/08/15 06:46:03;;;;;;;19.70;17.63;;;;;;;;;;5020894;28;20418;-92
2021/08/15 06:48:31;;;;;;;19.27;17.45;;;;;;;;;;5023646;28;20754;-92
2021/08/15 06:50:59;;;;;;;20.43;18.30;;;;;;;;;;5020684;28;20421;-90
2021/08/15 06:53:26;;;;;;;19.88;17.80;;;;;;;;;;5017341;28;20471;-90
2021/08/15 06:55:56;;;;;;;19.47;17.60;;;;;;;;;;5020527;28;20784;-91
2021/08/15 06:58:24;;;;;;;20.08;17.98;;;;;;;;;;5025506;28;20429;-93
2021/08/15 07:00:51;;;;;;;20.35;18.50;;;;;;;;;;5030084;28;20443;-93
2021/08/15 07:03:18;;;;;;;21.43;19.27;;;;;;;;;;5020630;28;20448;-91
2021/08/15 07:05:46;;;;;;;21.00;18.90;;;;;;;;;;5027422;28;20412;-91
2021/08/15 07:08:14;;;;;;;20.67;18.63;;;;;;;;;;5021353;28;20415;-92
2021/08/15 07:10:41;;;;;;;20.33;18.23;;;;;;;;;;5023675;28;20423;-91
2021/08/15 07:13:10;;;;;;;20.85;18.95;;;;;;;;;;5019770;28;20959;-92
2021/08/15 07:15:37;;;;;;;21.27;19.27;;;;;;;;;;5029328;28;20424;-91
2021/08/15 07:18:05;;;;;;;20.53;18.37;;;;;;;;;;5027750;28;20810;-90
2021/08/15 07:20:32;;;;;;;19.63;17.60;;;;;;;;;;5028414;28;20784;-92
2021/08/15 07:22:59;;;;;;;22.65;20.25;;;;;;;;;;5014138;28;20415;-91
2021/08/15 07:25:28;;;;;;;21.75;19.42;;;;;;;;;;5025803;28;20409;-92
2021/08/15 07:27:56;;;;;;;21.88;19.75;;;;;;;;;;5019903;28;20433;-92
2021/08/15 07:30:25;;;;;;;23.33;20.92;;;;;;;;;;5027505;28;20416;-91
2021/08/15 07:32:54;;;;;;;21.90;19.70;;;;;;;;;;5019914;28;20496;-89
2021/08/15 07:35:21;;;;;;;22.40;20.10;;;;;;;;;;5031939;28;20407;-91
2021/08/15 07:37:48;;;;;;;23.10;20.80;;;;;;;;;;5019752;28;20402;-92
2021/08/15 07:40:16;;;;;;;21.60;19.40;;;;;;;;;;5030828;28;20404;-92
2021/08/15 07:42:44;;;;;;;19.98;17.73;;;;;;;;;;5029533;28;20417;-92
2021/08/15 07:45:11;;;;;;;19.67;17.65;;;;;;;;;;5041259;28;20410;-92
2021/08/15 07:47:40;;;;;;;20.37;18.07;;;;;;;;;;5051005;28;20417;-96
2021/08/15 07:50:08;;;;;;;19.97;17.80;;;;;;;;;;5051979;28;20475;-96
2021/08/15 07:52:35;;;;;;;18.65;16.75;;;;;;;;;;5014657;28;20398;-94
2021/08/15 07:55:03;;;;;;;16.92;15.35;;;;;;;;;;5028386;28;20500;-95
2021/08/15 07:57:30;;;;;;;16.55;14.98;;;;;;;;;;5049795;28;20469;-94
2021/08/15 07:59:58;;;;;;;18.25;16.55;;;;;;;;;;5049103;28;20423;-95
2021/08/15 08:02:25;;;;;;;18.30;16.27;;;;;;;;;;5029880;28;20406;-94
2021/08/15 08:04:55;;;;;;;16.80;15.10;;;;;;;;;;5027517;28;20402;-95
2021/08/15 08:07:24;;;;;;;17.55;15.82;;;;;;;;;;5027946;28;20423;-94
2021/08/15 08:09:53;;;;;;;17.40;15.80;;;;;;;;;;5026705;28;20417;-94
2021/08/15 08:12:20;;;;;;;17.70;15.90;;;;;;;;;;5028326;28;21204;-94
2021/08/15 08:14:49;;;;;;;15.88;14.38;;;;;;;;;;5029227;28;20413;-96
2021/08/15 08:17:17;;;;;;;15.85;14.25;;;;;;;;;;5028019;28;20653;-94
2021/08/15 08:19:45;;;;;;;17.02;15.32;;;;;;;;;;5025984;28;20508;-96
2021/08/15 08:22:15;;;;;;;16.70;15.10;;;;;;;;;;5027921;28;20984;-95
2021/08/15 08:24:43;;;;;;;16.03;14.43;;;;;;;;;;5027573;28;20405;-95
2021/08/15 08:27:10;;;;;;;16.65;15.05;;;;;;;;;;5026158;28;20435;-93
2021/08/15 08:29:38;;;;;;;16.60;14.90;;;;;;;;;;5027094;28;20413;-95
2021/08/15 08:32:06;;;;;;;16.60;14.70;;;;;;;;;;5028218;28;20441;-96
2021/08/15 08:34:34;;;;;;;16.55;14.90;;;;;;;;;;5027430;28;20419;-94
2021/08/15 08:37:02;;;;;;;15.80;14.23;;;;;;;;;;5025035;28;20428;-94
2021/08/15 08:39:35;;;;;;;17.30;15.47;;;;;;;;;;5026038;28;20409;-96
2021/08/15 08:42:05;;;;;;;16.40;14.73;;;;;;;;;;5023611;28;20417;-95
2021/08/15 08:44:36;;;;;;;16.30;14.68;;;;;;;;;;5027395;28;20593;-95
2021/08/15 08:47:06;;;;;;;15.55;14.15;;;;;;;;;;5026523;28;20416;-95
2021/08/15 08:49:34;;;;;;;16.35;14.75;;;;;;;;;;5028005;28;20524;-95
2021/08/15 08:52:02;;;;;;;16.65;15.15;;;;;;;;;;5027458;28;20427;-95
2021/08/15 08:54:32;;;;;;;16.05;14.45;;;;;;;;;;5027288;28;20405;-95
2021/08/15 08:57:06;;;;;;;16.50;14.80;;;;;;;;;;5024508;28;20413;-96
2021/08/15 08:59:37;;;;;;;15.40;13.98;;;;;;;;;;5027399;28;20414;-96
2021/08/15 09:02:09;;;;;;;15.80;13.65;;;;;;;;;;5029930;28;20417;-95
2021/08/15 09:04:40;;;;;;;16.25;14.75;;;;;;;;;;5032338;28;20401;-96
2021/08/15 09:07:12;;;;;;;15.63;14.20;;;;;;;;;;5028488;28;20449;-95
2021/08/15 09:09:51;;;;;;;15.60;13.90;;;;;;;;;;5027723;28;20905;-94
2021/08/15 09:12:20;;;;;;;15.50;13.95;;;;;;;;;;5023750;28;20415;-95
2021/08/15 09:15:07;;;;;;;15.48;14.02;;;;;;;;;;5022694;28;20432;-95
2021/08/15 09:17:41;;;;;;;15.32;13.82;;;;;;;;;;5030031;28;20403;-96
2021/08/15 09:20:17;;;;;;;16.48;14.77;;;;;;;;;;5026862;28;20469;-94
2021/08/15 09:22:44;;;;;;;14.60;13.15;;;;;;;;;;5018477;28;20419;-94
2021/08/15 09:25:18;;;;;;;16.40;14.80;;;;;;;;;;5020743;28;20413;-94
2021/08/15 09:27:48;;;;;;;15.98;14.27;;;;;;;;;;5021954;28;20414;-94
2021/08/15 09:30:19;;;;;;;15.27;13.68;;;;;;;;;;5022668;28;20513;-94
2021/08/15 09:32:50;;;;;;;15.13;13.50;;;;;;;;;;5013243;28;20421;-94
2021/08/15 09:35:20;;;;;;;14.40;12.90;;;;;;;;;;5023534;28;20403;-95
2021/08/15 09:37:48;;;;;;;16.10;13.68;;;;;;;;;;5030631;28;20425;-96
2021/08/15 09:40:25;;;;;;;15.48;14.07;;;;;;;;;;5032689;28;20761;-94
2021/08/15 09:42:53;;;;;;;14.05;12.73;;;;;;;;;;5027641;28;20405;-95
2021/08/15 09:45:43;;;;;;;16.70;13.43;;;;;;;;;;5023748;28;20508;-95
2021/08/15 09:48:28;;;;;;;14.52;13.10;;;;;;;;;;5028536;28;20451;-95
2021/08/15 09:51:17;;;;;;;14.23;12.95;;;;;;;;;;5028271;28;20444;-93
2021/08/15 09:53:47;;;;;;;13.77;12.32;;;;;;;;;;5027128;28;20739;-94
2021/08/15 09:56:17;;;;;;;14.40;13.13;;;;;;;;;;5034829;28;20429;-94
2021/08/15 09:58:45;;;;;;;14.23;11.93;;;;;;;;;;5025657;28;20405;-94
2021/08/15 10:01:13;;;;;;;15.25;13.60;;;;;;;;;;5026041;28;20521;-95
2021/08/15 10:03:47;;;;;;;15.17;13.47;;;;;;;;;;5034968;28;20509;-96
2021/08/15 10:06:16;;;;;;;13.88;12.68;;;;;;;;;;5030259;28;20413;-96
2021/08/15 10:08:47;;;;;;;13.77;12.45;;;;;;;;;;5035364;28;20568;-95
2021/08/15 10:11:16;;;;;;;13.00;11.67;;;;;;;;;;5024244;28;20425;-95
2021/08/15 10:13:43;;;;;;;13.02;11.73;;;;;;;;;;5022125;28;20411;-95
2021/08/15 10:16:12;;;;;;;13.50;12.10;;;;;;;;;;5023164;28;20429;-94
2021/08/15 10:18:43;;;;;;;12.23;11.02;;;;;;;;;;5017558;28;20406;-94
2021/08/15 10:21:14;;;;;;;11.38;10.27;;;;;;;;;;5021411;28;20439;-96
2021/08/15 10:23:44;;;;;;;12.82;10.75;;;;;;;;;;5023016;28;20470;-95
2021/08/15 10:26:53;;;;;;;11.35;9.65;;;;;;;;;;5022126;28;20477;-94
2021/08/15 10:29:38;;;;;;;10.13;9.05;;;;;;;;;;5019745;28;20421;-90
2021/08/15 10:32:10;;;;;;;10.50;9.43;;;;;;;;;;5017832;28;20421;-94
2021/08/15 10:35:13;;;;;;;10.55;9.55;;;;;;;;;;5021887;28;20412;-94
2021/08/15 10:37:40;;;;;;;11.27;10.18;;;;;;;;;;5023201;28;20393;-94
2021/08/15 10:40:08;;;;;;;11.20;10.02;;;;;;;;;;5022711;28;20429;-94
2021/08/15 10:42:51;;;;;;;12.55;11.25;;;;;;;;;;5021294;28;20884;-93
2021/08/15 10:45:23;;;;;;;12.85;10.63;;;;;;;;;;5025386;28;20484;-94
2021/08/15 10:48:23;;;;;;;11.48;10.18;;;;;;;;;;5027776;28;20449;-93
2021/08/15 10:50:52;;;;;;;10.98;9.93;;;;;;;;;;5018198;28;20414;-93
2021/08/15 10:53:37;;;;;;;11.60;9.30;;;;;;;;;;5033083;28;20432;-94
2021/08/15 10:56:06;;;;;;;10.35;9.00;;;;;;;;;;5046955;28;20851;-94
2021/08/15 10:58:39;;;;;;;9.52;8.57;;;;;;;;;;5046686;28;20395;-94
2021/08/15 11:01:08;;;;;;;8.90;7.97;;;;;;;;;;5046793;28;20783;-94
2021/08/15 11:03:41;;;;;;;8.73;7.90;;;;;;;;;;5017971;28;20417;-94
2021/08/15 11:06:41;;;;;;;9.45;7.60;;;;;;;;;;5026946;28;20424;-93
2021/08/15 11:09:11;;;;;;;7.55;6.85;;;;;;;;;;5022017;28;20441;-95
2021/08/15 11:12:10;;;;;;;8.87;6.80;;;;;;;;;;5023185;28;20419;-87
2021/08/15 11:14:57;;;;;;;7.83;5.90;;;;;;;;;;5020914;28;20754;-91
2021/08/15 11:17:24;;;;;;;8.85;6.93;;;;;;;;;;5019447;28;20483;-92
2021/08/15 11:19:52;;;;;;;8.32;6.80;;;;;;;;;;5024019;28;20433;-92
2021/08/15 11:22:26;;;;;;;7.35;6.57;;;;;;;;;;5023244;28;20421;-90
2021/08/15 11:25:03;;;;;;;8.75;6.28;;;;;;;;;;5018085;28;20471;-91
2021/08/15 11:27:34;;;;;;;6.68;5.80;;;;;;;;;;5017565;28;20961;-93
2021/08/15 11:30:09;;;;;;;6.82;6.20;;;;;;;;;;5020988;28;20421;-92
2021/08/15 11:32:36;;;;;;;7.25;6.20;;;;;;;;;;4995862;28;20925;-91
2021/08/15 11:35:05;;;;;;;5.90;5.40;;;;;;;;;;5017696;28;20954;-92
2021/08/15 11:37:34;;;;;;;7.10;5.78;;;;;;;;;;5013150;28;21153;-91
2021/08/15 11:40:14;;;;;;;6.25;5.55;;;;;;;;;;5019718;28;20797;-88
2021/08/15 11:42:42;;;;;;;6.72;5.88;;;;;;;;;;5012840;28;20407;-79
2021/08/15 11:45:12;;;;;;;8.77;6.70;;;;;;;;;;5009515;28;20403;-91
2021/08/15 11:47:41;;;;;;;8.10;7.30;;;;;;;;;;5020331;28;20456;-94
2021/08/15 11:50:19;;;;;;;8.27;7.30;;;;;;;;;;5030049;28;20430;-96
2021/08/15 11:52:47;;;;;;;8.93;7.63;;;;;;;;;;5030066;28;20420;-95
2021/08/15 11:55:23;;;;;;;8.80;7.80;;;;;;;;;;5025563;28;20422;-94
2021/08/15 11:57:52;;;;;;;10.02;9.05;;;;;;;;;;5023749;28;20401;-95
2021/08/15 12:00:31;;;;;;;10.40;9.35;;;;;;;;;;5034145;28;20415;-95
2021/08/15 12:03:07;;;;;;;9.98;9.07;;;;;;;;;;5043189;28;20510;-95
2021/08/15 12:05:39;;;;;;;11.40;9.30;;;;;;;;;;5045699;28;20426;-96
2021/08/15 12:08:09;;;;;;;10.98;8.82;;;;;;;;;;5050643;28;20432;-96
2021/08/15 12:10:47;;;;;;;10.05;9.15;;;;;;;;;;5043860;28;20903;-96
2021/08/15 12:13:20;;;;;;;10.00;9.00;;;;;;;;;;5029924;28;20425;-95
2021/08/15 12:15:52;;;;;;;10.15;9.20;;;;;;;;;;5045894;28;20430;-96
2021/08/15 12:18:31;;;;;;;9.60;8.70;;;;;;;;;;5049584;28;20460;-95
2021/08/15 12:21:00;;;;;;;9.05;8.25;;;;;;;;;;5034570;28;20768;-93
2021/08/15 12:23:28;;;;;;;9.93;9.02;;;;;;;;;;5026085;28;20405;-94
2021/08/15 12:26:07;;;;;;;10.20;9.20;;;;;;;;;;5029839;28;20429;-94
2021/08/15 12:28:36;;;;;;;10.27;9.23;;;;;;;;;;5021443;28;20599;-94
2021/08/15 12:31:23;;;;;;;9.38;8.57;;;;;;;;;;5028754;28;20475;-93
2021/08/15 12:33:51;;;;;;;9.63;8.73;;;;;;;;;;5029401;28;20401;-94
2021/08/15 12:36:21;;;;;;;9.23;8.40;;;;;;;;;;5021209;28;20420;-94
2021/08/15 12:38:49;;;;;;;10.60;8.85;;;;;;;;;;5026552;28;20441;-94
2021/08/15 12:41:27;;;;;;;9.50;8.50;;;;;;;;;;5021719;28;20416;-94
2021/08/15 12:44:11;;;;;;;13.05;8.85;;;;;;;;;;5035166;28;20405;-94
2021/08/15 12:46:41;;;;;;;12.07;8.55;;;;;;;;;;5031105;28;20409;-94
2021/08/15 12:49:23;;;;;;;11.65;9.40;;;;;;;;;;5037904;28;20421;-94
2021/08/15 12:51:52;;;;;;;10.35;8.57;;;;;;;;;;5038288;28;21207;-94
2021/08/15 12:54:19;;;;;;;9.50;8.65;;;;;;;;;;5048234;28;21064;-94
2021/08/15 12:56:46;;;;;;;11.83;9.23;;;;;;;;;;5049196;28;20386;-95
2021/08/15 12:59:13;;;;;;;10.35;9.35;;;;;;;;;;5026655;28;20901;-82
2021/08/15 13:01:44;;;;;;;10.13;9.10;;;;;;;;;;5044483;28;20413;-94
2021/08/15 13:04:11;;;;;;;10.37;8.87;;;;;;;;;;5032588;28;20416;-95
2021/08/15 13:06:37;;;;;;;9.90;8.70;;;;;;;;;;5027698;28;20417;-93
2021/08/15 13:09:05;;;;;;;10.00;8.85;;;;;;;;;;5017678;28;20625;-94
2021/08/15 13:11:33;;;;;;;9.67;8.63;;;;;;;;;;5023833;28;20845;-92
2021/08/15 13:14:00;;;;;;;9.60;8.70;;;;;;;;;;5012938;28;20410;-95
2021/08/15 13:16:27;;;;;;;9.37;8.47;;;;;;;;;;5029622;28;20436;-96
2021/08/15 13:18:58;;;;;;;10.75;8.60;;;;;;;;;;5023214;28;20412;-96
2021/08/15 13:21:25;;;;;;;8.93;8.00;;;;;;;;;;5029727;28;20925;-82
2021/08/15 13:23:52;;;;;;;9.18;8.27;;;;;;;;;;5025682;28;20397;-95
2021/08/15 13:26:20;;;;;;;8.70;7.80;;;;;;;;;;5033292;28;20431;-95
2021/08/15 13:28:47;;;;;;;9.60;8.15;;;;;;;;;;5033012;28;20409;-96
2021/08/15 13:31:15;;;;;;;9.48;7.70;;;;;;;;;;5030330;28;20633;-96
2021/08/15 13:33:42;;;;;;;9.50;8.43;;;;;;;;;;5029879;28;20416;-95
2021/08/15 13:36:11;;;;;;;9.00;8.20;;;;;;;;;;5028387;28;20424;-96
2021/08/15 13:38:40;;;;;;;10.02;8.10;;;;;;;;;;5029685;28;20855;-96
2021/08/15 13:41:07;;;;;;;9.13;7.90;;;;;;;;;;5029002;28;20428;-95
2021/08/15 13:43:34;;;;;;;8.48;7.57;;;;;;;;;;5031203;28;20768;-96
2021/08/15 13:46:01;;;;;;;9.05;7.70;;;;;;;;;;5029064;28;21243;-96
2021/08/15 13:48:28;;;;;;;8.90;8.00;;;;;;;;;;5030910;28;20412;-96
2021/08/15 13:50:56;;;;;;;9.55;8.02;;;;;;;;;;5029405;28;20785;-95
2021/08/15 13:53:25;;;;;;;8.40;7.60;;;;;;;;;;5029699;28;20541;-95
2021/08/15 13:55:53;;;;;;;8.73;7.93;;;;;;;;;;5030257;28;20417;-95
2021/08/15 13:58:20;;;;;;;8.68;7.75;;;;;;;;;;5030033;28;20413;-96
2021/08/15 14:00:50;;;;;;;9.07;8.18;;;;;;;;;;5029029;28;20780;-96
2021/08/15 14:03:17;;;;;;;8.75;7.95;;;;;;;;;;5030408;28;20428;-96
2021/08/15 14:05:44;;;;;;;9.00;8.02;;;;;;;;;;5030060;28;20413;-95
2021/08/15 14:08:11;;;;;;;9.13;8.13;;;;;;;;;;5030304;28;20405;-95
2021/08/15 14:10:43;;;;;;;9.35;7.82;;;;;;;;;;5030880;28;20425;-96
2021/08/15 14:13:12;;;;;;;9.00;7.70;;;;;;;;;;5029693;28;20444;-95
2021/08/15 14:15:39;;;;;;;8.40;7.30;;;;;;;;;;5029670;28;20416;-96
2021/08/15 14:18:07;;;;;;;8.55;7.57;;;;;;;;;;5028527;28;20467;-96
2021/08/15 14:20:35;;;;;;;9.90;7.90;;;;;;;;;;5028971;28;20409;-96
2021/08/15 14:23:02;;;;;;;7.53;6.72;;;;;;;;;;5029199;28;20460;-96
2021/08/15 14:25:30;;;;;;;8.20;7.40;;;;;;;;;;5025443;28;20919;-96
2021/08/15 14:28:00;;;;;;;8.27;7.18;;;;;;;;;;5028888;28;20417;-95
2021/08/15 14:30:27;;;;;;;8.07;7.17;;;;;;;;;;5028175;28;20413;-96
2021/08/15 14:32:54;;;;;;;7.80;7.10;;;;;;;;;;5028208;28;20424;-96
2021/08/15 14:35:22;;;;;;;7.95;7.18;;;;;;;;;;5028649;28;20419;-95
2021/08/15 14:37:49;;;;;;;8.82;7.07;;;;;;;;;;5028374;28;20512;-96